Time;durP1;ratioP1;P1;durP2;ratioP2;P2;SDS_P1;SDS_P2;PMS_P1;PMS_P2;Temp;Humidity;BMP_temperature;BMP_pressure;BME280_temperature;BME280_humidity;BME280_pressure;Samples;Min_cycle;Max_cycle;Signal;HPM_P1;HPM_P2
2023/09/04 00:02:02;;;;;;;0.00;0.00;;;19.90;99.90;;;;;;5012354;28;20030;-74
2023/09/04 00:04:28;;;;;;;0.70;0.30;;;19.80;99.90;;;;;;5012419;28;20233;-74
2023/09/04 00:06:54;;;;;;;0.00;0.00;;;19.60;99.90;;;;;;5012549;28;20492;-75
2023/09/04 00:09:20;;;;;;;0.20;0.20;;;19.60;99.90;;;;;;5012157;28;20087;-74
2023/09/04 00:11:45;;;;;;;0.00;0.00;;;19.30;99.90;;;;;;5012366;28;20030;-74
2023/09/04 00:14:12;;;;;;;0.00;0.00;;;19.20;99.90;;;;;;5011677;28;20025;-73
2023/09/04 00:16:39;;;;;;;0.35;0.35;;;19.20;99.90;;;;;;5012375;28;20052;-75
2023/09/04 00:19:04;;;;;;;1.45;0.50;;;19.20;99.90;;;;;;5012103;28;20022;-74
2023/09/04 00:21:31;;;;;;;0.00;0.00;;;19.40;99.90;;;;;;5012259;28;20029;-74
2023/09/04 00:23:56;;;;;;;0.00;0.00;;;19.20;99.90;;;;;;5012259;28;20091;-73
2023/09/04 00:26:22;;;;;;;0.00;0.00;;;19.30;99.90;;;;;;5011839;28;20070;-75
2023/09/04 00:28:48;;;;;;;0.00;0.00;;;19.50;99.90;;;;;;5012125;28;20386;-74
2023/09/04 00:31:14;;;;;;;0.00;0.00;;;19.40;99.90;;;;;;5011956;28;20033;-74
2023/09/04 00:33:40;;;;;;;0.00;0.00;;;19.20;99.90;;;;;;5012147;28;20080;-73
2023/09/04 00:36:09;;;;;;;0.00;0.00;;;19.30;99.90;;;;;;5011847;28;20030;-74
2023/09/04 00:38:35;;;;;;;0.00;0.00;;;19.10;99.90;;;;;;5012101;28;20513;-74
2023/09/04 00:41:00;;;;;;;0.00;0.00;;;18.90;99.90;;;;;;5011743;28;20179;-73
2023/09/04 00:43:34;;;;;;;0.00;0.00;;;18.90;99.90;;;;;;5010696;28;20146;-76
2023/09/04 00:46:00;;;;;;;0.00;0.00;;;18.90;99.90;;;;;;5010653;28;20046;-78
2023/09/04 00:48:26;;;;;;;0.20;0.20;;;18.80;99.90;;;;;;5010415;28;20022;-78
2023/09/04 00:50:52;;;;;;;0.00;0.00;;;18.60;99.90;;;;;;5011757;28;20029;-80
2023/09/04 00:53:18;;;;;;;0.90;0.65;;;18.50;99.90;;;;;;5011766;28;20074;-80
2023/09/04 00:55:45;;;;;;;0.00;0.00;;;18.40;99.90;;;;;;5011460;28;20034;-81
2023/09/04 00:58:11;;;;;;;0.00;0.00;;;18.40;99.90;;;;;;5011811;28;20374;-80
2023/09/04 01:00:37;;;;;;;0.00;0.00;;;18.60;99.90;;;;;;5010123;28;20068;-80
2023/09/04 01:03:03;;;;;;;0.00;0.00;;;18.60;99.90;;;;;;5010533;28;20018;-80
2023/09/04 01:05:31;;;;;;;0.00;0.00;;;18.60;99.90;;;;;;4993683;28;20034;-74
2023/09/04 01:07:58;;;;;;;0.03;0.03;;;18.60;99.90;;;;;;5010447;28;20028;-80
2023/09/04 01:10:27;;;;;;;0.00;0.00;;;18.60;99.90;;;;;;5009634;28;20061;-79
2023/09/04 01:13:07;;;;;;;0.00;0.00;;;18.70;99.90;;;;;;5010365;28;20026;-79
2023/09/04 01:15:34;;;;;;;0.08;0.08;;;18.70;99.90;;;;;;5010202;28;20022;-80
2023/09/04 01:18:02;;;;;;;0.00;0.00;;;18.60;99.90;;;;;;5010450;28;20108;-79
2023/09/04 01:20:29;;;;;;;0.00;0.00;;;18.40;99.90;;;;;;5011234;28;20370;-79
2023/09/04 01:22:56;;;;;;;8.60;0.85;;;18.50;99.90;;;;;;5009901;28;20026;-78
2023/09/04 01:25:38;;;;;;;0.10;0.10;;;18.50;99.90;;;;;;4992691;28;20453;-77
2023/09/04 01:28:22;;;;;;;0.17;0.17;;;18.40;99.90;;;;;;5008700;28;20037;-79
2023/09/04 01:30:58;;;;;;;0.00;0.00;;;18.30;99.90;;;;;;5009760;28;20454;-75
2023/09/04 01:33:29;;;;;;;0.00;0.00;;;18.20;99.90;;;;;;5010022;28;20034;-78
2023/09/04 01:35:59;;;;;;;0.00;0.00;;;18.30;99.90;;;;;;5011224;28;20022;-79
2023/09/04 01:38:25;;;;;;;0.00;0.00;;;18.10;99.90;;;;;;5010927;28;20238;-80
2023/09/04 01:40:52;;;;;;;0.20;0.20;;;18.20;99.90;;;;;;5010897;28;20090;-79
2023/09/04 01:43:18;;;;;;;0.00;0.00;;;18.30;99.90;;;;;;5011156;28;20049;-78
2023/09/04 01:45:44;;;;;;;0.00;0.00;;;18.30;99.90;;;;;;5009851;28;20405;-80
2023/09/04 01:48:10;;;;;;;0.00;0.00;;;18.20;99.90;;;;;;5009806;28;20038;-80
2023/09/04 01:50:35;;;;;;;0.40;0.40;;;18.10;99.90;;;;;;5011032;28;20359;-80
2023/09/04 01:53:01;;;;;;;0.00;0.00;;;17.70;99.90;;;;;;5009493;28;20018;-80
2023/09/04 01:55:27;;;;;;;0.45;0.45;;;17.50;99.90;;;;;;5025976;28;20026;-79
2023/09/04 01:57:53;;;;;;;0.00;0.00;;;17.30;99.90;;;;;;5009432;28;20098;-80
2023/09/04 02:00:19;;;;;;;0.00;0.00;;;17.30;99.90;;;;;;5009343;28;20033;-79
2023/09/04 02:02:45;;;;;;;0.10;0.10;;;17.30;99.90;;;;;;5018670;28;20036;-80
2023/09/04 02:05:11;;;;;;;0.00;0.00;;;17.30;99.90;;;;;;5010736;28;20030;-80
2023/09/04 02:07:37;;;;;;;0.00;0.00;;;17.60;99.90;;;;;;5010229;28;20450;-79
2023/09/04 02:10:03;;;;;;;0.00;0.00;;;17.70;99.90;;;;;;5009729;28;20026;-81
2023/09/04 02:12:28;;;;;;;0.63;0.63;;;17.90;99.90;;;;;;5010425;28;20038;-80
2023/09/04 02:14:54;;;;;;;0.00;0.00;;;17.80;99.90;;;;;;5010497;28;20033;-80
2023/09/04 02:17:20;;;;;;;0.00;0.00;;;17.80;99.90;;;;;;5009193;28;20061;-80
2023/09/04 02:19:46;;;;;;;0.00;0.00;;;17.70;99.90;;;;;;5009529;28;20378;-79
2023/09/04 02:22:12;;;;;;;0.10;0.10;;;17.80;99.90;;;;;;5010123;28;20026;-77
2023/09/04 02:24:38;;;;;;;0.00;0.00;;;17.80;99.90;;;;;;5010295;28;20014;-80
2023/09/04 02:27:04;;;;;;;0.00;0.00;;;17.80;99.90;;;;;;5010287;28;20086;-80
2023/09/04 02:29:30;;;;;;;0.00;0.00;;;17.60;99.90;;;;;;5009239;28;20060;-81
2023/09/04 02:31:56;;;;;;;0.10;0.10;;;17.50;99.90;;;;;;4989330;28;20390;-77
2023/09/04 02:34:21;;;;;;;0.00;0.00;;;17.50;99.90;;;;;;5001191;28;20030;-80
2023/09/04 02:36:47;;;;;;;0.00;0.00;;;17.60;99.90;;;;;;5008448;28;20033;-79
2023/09/04 02:39:13;;;;;;;0.00;0.00;;;17.40;99.90;;;;;;5010300;28;20057;-80
2023/09/04 02:41:39;;;;;;;0.00;0.00;;;17.30;99.90;;;;;;5009001;28;20113;-80
2023/09/04 02:44:05;;;;;;;0.00;0.00;;;17.30;99.90;;;;;;5025461;28;20405;-79
2023/09/04 02:46:32;;;;;;;0.00;0.00;;;17.50;99.90;;;;;;4992781;28;20042;-80
2023/09/04 02:48:58;;;;;;;0.00;0.00;;;17.50;99.90;;;;;;5010560;28;20022;-78
2023/09/04 02:51:24;;;;;;;0.00;0.00;;;17.70;99.90;;;;;;4990069;28;20038;-80
2023/09/04 02:53:50;;;;;;;14.70;1.85;;;17.80;99.90;;;;;;5006143;28;20029;-80
2023/09/04 02:56:16;;;;;;;0.00;0.00;;;17.80;99.90;;;;;;5009497;28;20038;-80
2023/09/04 02:58:41;;;;;;;0.00;0.00;;;17.70;99.90;;;;;;5009358;28;20057;-80
2023/09/04 03:01:08;;;;;;;0.00;0.00;;;17.60;99.90;;;;;;5025613;28;20032;-80
2023/09/04 03:03:34;;;;;;;0.00;0.00;;;17.40;99.90;;;;;;5008813;28;20034;-73
2023/09/04 03:06:10;;;;;;;0.00;0.00;;;17.30;99.90;;;;;;5024801;28;20474;-73
2023/09/04 03:08:38;;;;;;;0.00;0.00;;;17.30;99.90;;;;;;5025006;28;20034;-75
2023/09/04 03:11:13;;;;;;;0.00;0.00;;;17.30;99.90;;;;;;5008807;28;20030;-73
2023/09/04 03:13:39;;;;;;;0.00;0.00;;;17.20;99.90;;;;;;5008364;28;20026;-73
2023/09/04 03:16:06;;;;;;;0.00;0.00;;;17.20;99.90;;;;;;5008597;28;20435;-74
2023/09/04 03:18:33;;;;;;;0.00;0.00;;;17.40;99.90;;;;;;4992181;28;20490;-73
2023/09/04 03:21:01;;;;;;;0.00;0.00;;;17.30;99.90;;;;;;4991789;28;20030;-73
2023/09/04 03:23:28;;;;;;;1.73;0.38;;;17.20;99.90;;;;;;5024661;28;20026;-74
2023/09/04 03:25:54;;;;;;;0.00;0.00;;;17.20;99.90;;;;;;5009868;28;20441;-73
2023/09/04 03:28:20;;;;;;;0.00;0.00;;;17.10;99.90;;;;;;5009495;28;20029;-73
2023/09/04 03:30:47;;;;;;;0.00;0.00;;;17.10;99.90;;;;;;5024850;28;20064;-79
2023/09/04 03:33:13;;;;;;;0.15;0.15;;;17.10;99.90;;;;;;5008184;28;20030;-72
2023/09/04 03:35:39;;;;;;;0.00;0.00;;;17.10;99.90;;;;;;5007937;28;20037;-73
2023/09/04 03:38:04;;;;;;;0.20;0.20;;;17.10;99.90;;;;;;5009498;28;20026;-73
2023/09/04 03:40:30;;;;;;;0.00;0.00;;;17.20;99.90;;;;;;5008068;28;20049;-73
2023/09/04 03:42:56;;;;;;;0.00;0.00;;;17.30;99.90;;;;;;5008338;28;20053;-73
2023/09/04 03:45:23;;;;;;;1.35;0.90;;;17.50;99.90;;;;;;5009133;28;20026;-74
2023/09/04 03:47:49;;;;;;;0.00;0.00;;;17.60;99.90;;;;;;5008234;28;20026;-72
2023/09/04 03:50:16;;;;;;;0.10;0.10;;;17.70;99.90;;;;;;5012045;28;20030;-73
2023/09/04 03:52:43;;;;;;;0.50;0.50;;;17.50;99.90;;;;;;5011420;28;20026;-73
2023/09/04 03:55:10;;;;;;;0.00;0.00;;;17.20;99.90;;;;;;5011346;28;20393;-74
2023/09/04 03:57:36;;;;;;;0.10;0.10;;;17.10;99.90;;;;;;5011457;28;20034;-73
2023/09/04 04:00:14;;;;;;;0.00;0.00;;;17.20;99.90;;;;;;5011231;28;20114;-74
2023/09/04 04:02:44;;;;;;;0.30;0.20;;;17.50;99.90;;;;;;5012422;28;20049;-73
2023/09/04 04:05:12;;;;;;;0.25;0.25;;;17.60;99.90;;;;;;5010649;28;20038;-74
2023/09/04 04:07:38;;;;;;;0.03;0.03;;;17.30;99.90;;;;;;5012307;28;20029;-73
2023/09/04 04:10:05;;;;;;;0.00;0.00;;;17.00;99.90;;;;;;5012418;28;20037;-73
2023/09/04 04:12:33;;;;;;;0.00;0.00;;;17.00;99.90;;;;;;5012400;28;20028;-72
2023/09/04 04:15:03;;;;;;;0.38;0.38;;;16.80;99.90;;;;;;5012196;28;20025;-75
2023/09/04 04:17:29;;;;;;;2.63;0.40;;;16.80;99.90;;;;;;5027086;28;20090;-74
2023/09/04 04:19:56;;;;;;;0.13;0.13;;;16.80;99.90;;;;;;5012346;28;20466;-73
2023/09/04 04:22:23;;;;;;;0.00;0.00;;;17.00;99.90;;;;;;5012203;28;20026;-75
2023/09/04 04:24:49;;;;;;;0.05;0.05;;;17.00;99.90;;;;;;5027328;28;20079;-73
2023/09/04 04:27:16;;;;;;;0.08;0.08;;;17.00;99.90;;;;;;5010978;28;20034;-73
2023/09/04 04:29:48;;;;;;;1.52;1.42;;;17.00;99.90;;;;;;5011635;28;20044;-74
2023/09/04 04:32:14;;;;;;;;;;;16.80;99.90;;;;;;4994656;28;20026;-73
2023/09/04 04:34:41;;;;;;;0.30;0.30;;;16.80;99.90;;;;;;5012012;28;19917;-73
2023/09/04 04:37:09;;;;;;;0.00;0.00;;;16.70;99.90;;;;;;5027250;28;20450;-72
2023/09/04 04:39:37;;;;;;;10.15;2.83;;;16.70;99.90;;;;;;4994434;28;20104;-72
2023/09/04 04:42:04;;;;;;;0.10;0.10;;;16.70;99.90;;;;;;5011792;28;20021;-73
2023/09/04 04:44:32;;;;;;;0.65;0.43;;;16.80;99.90;;;;;;5011883;28;20034;-73
2023/09/04 04:46:59;;;;;;;0.20;0.20;;;16.80;99.90;;;;;;5026731;28;20034;-73
2023/09/04 04:49:25;;;;;;;0.20;0.20;;;16.70;99.90;;;;;;5012194;28;20105;-79
2023/09/04 04:51:51;;;;;;;0.85;0.85;;;16.80;99.90;;;;;;5010581;28;20033;-79
2023/09/04 04:54:19;;;;;;;0.00;0.00;;;16.90;99.90;;;;;;5010647;28;20394;-80
2023/09/04 04:56:47;;;;;;;0.10;0.10;;;16.80;99.90;;;;;;5010417;28;20032;-80
2023/09/04 04:59:13;;;;;;;0.00;0.00;;;16.70;99.90;;;;;;5010077;28;20076;-79
2023/09/04 05:01:38;;;;;;;0.10;0.10;;;16.70;99.90;;;;;;5009463;28;20065;-79
2023/09/04 05:04:05;;;;;;;0.10;0.10;;;16.50;99.90;;;;;;4993750;28;20057;-72
2023/09/04 05:06:32;;;;;;;0.60;0.60;;;16.60;99.90;;;;;;5010157;28;20029;-74
2023/09/04 05:08:58;;;;;;;0.00;0.00;;;16.70;99.90;;;;;;5010265;28;20026;-73
2023/09/04 05:11:25;;;;;;;0.00;0.00;;;16.80;99.90;;;;;;5010297;28;20026;-74
2023/09/04 05:13:51;;;;;;;0.00;0.00;;;16.80;99.90;;;;;;5010341;28;20030;-75
2023/09/04 05:16:17;;;;;;;0.98;0.98;;;16.80;99.90;;;;;;5009752;28;20037;-73
2023/09/04 05:18:43;;;;;;;0.10;0.10;;;16.90;99.90;;;;;;4990734;28;20026;-73
2023/09/04 05:21:08;;;;;;;4.03;1.55;;;17.00;99.90;;;;;;5008953;28;20391;-73
2023/09/04 05:23:35;;;;;;;0.00;0.00;;;17.00;99.90;;;;;;5010042;28;20063;-72
2023/09/04 05:26:01;;;;;;;0.30;0.30;;;16.90;99.90;;;;;;5009853;28;20045;-73
2023/09/04 05:28:27;;;;;;;0.00;0.00;;;16.90;99.90;;;;;;5010014;28;20026;-72
2023/09/04 05:30:53;;;;;;;0.00;0.00;;;16.90;99.90;;;;;;5011472;28;20443;-72
2023/09/04 05:33:19;;;;;;;0.05;0.05;;;17.10;99.90;;;;;;5010995;28;20030;-73
2023/09/04 05:35:45;;;;;;;0.00;0.00;;;16.90;99.90;;;;;;5011176;28;20563;-74
2023/09/04 05:38:11;;;;;;;0.90;0.45;;;16.90;99.90;;;;;;5011079;28;20431;-72
2023/09/04 05:40:37;;;;;;;0.00;0.00;;;16.70;99.90;;;;;;5010825;28;20033;-73
2023/09/04 05:43:03;;;;;;;0.00;0.00;;;16.80;99.90;;;;;;5011222;28;20037;-74
2023/09/04 05:45:28;;;;;;;0.00;0.00;;;16.80;99.90;;;;;;5009220;28;20069;-73
2023/09/04 05:47:54;;;;;;;0.10;0.10;;;16.70;99.90;;;;;;5026986;28;20466;-73
2023/09/04 05:50:20;;;;;;;0.10;0.10;;;16.70;99.90;;;;;;5028879;28;20030;-73
2023/09/04 05:52:46;;;;;;;0.00;0.00;;;16.80;99.90;;;;;;5016020;28;20167;-73
2023/09/04 05:55:11;;;;;;;0.10;0.10;;;16.80;99.90;;;;;;5050448;28;21336;-74
2023/09/04 05:57:37;;;;;;;0.00;0.00;;;16.90;99.90;;;;;;5011711;28;20033;-73
2023/09/04 06:00:07;;;;;;;0.00;0.00;;;17.00;99.90;;;;;;5036500;28;20018;-73
2023/09/04 06:02:38;;;;;;;0.00;0.00;;;17.00;99.90;;;;;;5023280;28;20034;-73
2023/09/04 06:05:04;;;;;;;1.50;1.10;;;16.90;99.90;;;;;;5018480;28;20477;-73
2023/09/04 06:07:30;;;;;;;0.00;0.00;;;17.00;99.90;;;;;;5028407;28;20038;-73
2023/09/04 06:09:56;;;;;;;0.03;0.03;;;17.00;99.90;;;;;;5046181;28;20038;-73
2023/09/04 06:12:23;;;;;;;0.00;0.00;;;17.10;99.90;;;;;;5031339;28;20071;-73
2023/09/04 06:14:48;;;;;;;0.00;0.00;;;17.10;99.90;;;;;;5020202;28;20022;-73
2023/09/04 06:17:14;;;;;;;0.00;0.00;;;17.20;99.90;;;;;;5038638;28;20080;-74
2023/09/04 06:19:40;;;;;;;0.00;0.00;;;17.30;99.90;;;;;;5017148;28;20035;-73
2023/09/04 06:22:06;;;;;;;0.05;0.05;;;17.20;99.90;;;;;;5041391;28;20047;-74
2023/09/04 06:24:32;;;;;;;0.00;0.00;;;17.20;99.90;;;;;;5029078;28;20105;-74
2023/09/04 06:26:58;;;;;;;0.00;0.00;;;17.30;99.90;;;;;;5019640;28;20045;-73
2023/09/04 06:29:23;;;;;;;0.20;0.20;;;17.30;99.90;;;;;;5047755;28;20026;-73
2023/09/04 06:31:49;;;;;;;0.00;0.00;;;17.30;99.90;;;;;;5010432;28;20069;-73
2023/09/04 06:34:15;;;;;;;0.00;0.00;;;17.80;99.90;;;;;;5019448;28;20056;-73
2023/09/04 06:36:41;;;;;;;0.10;0.10;;;17.70;99.90;;;;;;5081342;28;20046;-74
2023/09/04 06:39:07;;;;;;;0.00;0.00;;;17.40;99.90;;;;;;5076875;28;20374;-73
2023/09/04 06:41:33;;;;;;;0.00;0.00;;;17.40;99.90;;;;;;5071580;28;20027;-74
2023/09/04 06:43:59;;;;;;;0.08;0.08;;;17.40;99.90;;;;;;5029207;28;20026;-74
2023/09/04 06:46:25;;;;;;;1.08;0.77;;;17.40;99.90;;;;;;5015039;28;20482;-73
2023/09/04 06:48:51;;;;;;;0.00;0.00;;;17.20;99.90;;;;;;5066173;28;20025;-75
2023/09/04 06:51:17;;;;;;;0.00;0.00;;;17.30;99.90;;;;;;5079049;28;20023;-78
2023/09/04 06:53:43;;;;;;;0.10;0.10;;;17.60;99.90;;;;;;5058250;28;20065;-73
2023/09/04 06:56:09;;;;;;;0.00;0.00;;;17.60;99.90;;;;;;5023679;28;20606;-74
2023/09/04 06:58:35;;;;;;;0.10;0.10;;;17.80;99.90;;;;;;5010670;28;20079;-73
2023/09/04 07:01:02;;;;;;;0.52;0.52;;;17.90;99.90;;;;;;5024879;28;20037;-73
2023/09/04 07:03:29;;;;;;;0.00;0.00;;;17.90;99.90;;;;;;5075375;28;20368;-74
2023/09/04 07:05:55;;;;;;;0.40;0.40;;;17.80;99.90;;;;;;5041427;28;20033;-74
2023/09/04 07:08:21;;;;;;;0.00;0.00;;;18.00;99.90;;;;;;5019528;28;20488;-74
2023/09/04 07:10:51;;;;;;;1.20;0.52;;;18.10;99.90;;;;;;5027445;28;20026;-74
2023/09/04 07:13:18;;;;;;;0.05;0.05;;;18.20;99.90;;;;;;5031174;28;20425;-74
2023/09/04 07:15:44;;;;;;;0.00;0.00;;;18.40;99.90;;;;;;5047940;28;20022;-74
2023/09/04 07:18:10;;;;;;;0.00;0.00;;;18.40;99.90;;;;;;5027945;28;20029;-75
2023/09/04 07:20:36;;;;;;;0.13;0.13;;;18.70;99.90;;;;;;5015427;28;20030;-75
2023/09/04 07:23:03;;;;;;;0.00;0.00;;;18.60;99.90;;;;;;5023998;28;20026;-75
2023/09/04 07:25:31;;;;;;;8.82;6.18;;;18.80;99.90;;;;;;5038734;28;20044;-75
2023/09/04 07:27:57;;;;;;;0.00;0.00;;;18.80;99.90;;;;;;5031238;28;20126;-75
2023/09/04 07:30:22;;;;;;;3.17;1.60;;;19.00;99.90;;;;;;5027003;28;20549;-74
2023/09/04 07:32:48;;;;;;;1.35;1.02;;;18.90;99.90;;;;;;5014349;28;20079;-74
2023/09/04 07:35:14;;;;;;;0.00;0.00;;;19.10;99.90;;;;;;5036537;28;20431;-74
2023/09/04 07:37:40;;;;;;;0.10;0.10;;;19.20;99.90;;;;;;5085627;28;20068;-74
2023/09/04 07:40:08;;;;;;;0.00;0.00;;;19.40;99.90;;;;;;5052958;28;20025;-76
2023/09/04 07:42:33;;;;;;;0.75;0.75;;;19.50;99.90;;;;;;5027013;28;20440;-75
2023/09/04 07:44:59;;;;;;;0.00;0.00;;;19.40;99.90;;;;;;5022674;28;20029;-75
2023/09/04 07:47:25;;;;;;;0.05;0.05;;;19.50;99.90;;;;;;5035499;28;20031;-74
2023/09/04 07:49:52;;;;;;;3.42;1.73;;;19.70;99.90;;;;;;5081179;28;20396;-74
2023/09/04 07:52:18;;;;;;;1.10;1.00;;;19.50;99.90;;;;;;5039227;28;20033;-76
2023/09/04 07:54:45;;;;;;;0.10;0.10;;;19.60;99.90;;;;;;5026564;28;20026;-77
2023/09/04 07:57:11;;;;;;;0.32;0.32;;;19.50;99.90;;;;;;5014367;28;20034;-77
2023/09/04 07:59:38;;;;;;;1.35;0.85;;;19.80;99.90;;;;;;5051199;28;20472;-75
2023/09/04 08:02:03;;;;;;;0.00;0.00;;;20.00;99.90;;;;;;5062525;28;20041;-78
2023/09/04 08:04:29;;;;;;;0.00;0.00;;;20.20;99.90;;;;;;5037987;28;20030;-79
2023/09/04 08:06:58;;;;;;;0.00;0.00;;;20.40;99.90;;;;;;5022214;28;20038;-76
2023/09/04 08:09:23;;;;;;;2.47;0.47;;;20.70;99.90;;;;;;5039247;27;20016;-74
2023/09/04 08:11:50;;;;;;;0.00;0.00;;;20.70;99.90;;;;;;5062443;28;20104;-74
2023/09/04 08:14:16;;;;;;;0.10;0.10;;;21.00;99.90;;;;;;5022257;28;20022;-73
2023/09/04 08:16:41;;;;;;;2.03;0.30;;;20.70;99.90;;;;;;5025362;28;20480;-73
2023/09/04 08:19:07;;;;;;;0.10;0.10;;;20.50;99.90;;;;;;5036211;28;20026;-78
2023/09/04 08:21:33;;;;;;;0.73;0.73;;;20.60;99.90;;;;;;5034167;28;20039;-78
2023/09/04 08:23:59;;;;;;;5.95;2.83;;;20.60;99.90;;;;;;5021825;28;20018;-78
2023/09/04 08:26:25;;;;;;;0.35;0.35;;;20.60;99.90;;;;;;5037382;28;20129;-78
2023/09/04 08:28:50;;;;;;;0.00;0.00;;;20.80;99.90;;;;;;5039040;28;20050;-78
2023/09/04 08:31:16;;;;;;;0.00;0.00;;;20.60;99.90;;;;;;5027536;28;20018;-78
2023/09/04 08:33:42;;;;;;;0.00;0.00;;;21.20;99.90;;;;;;5028935;28;20441;-78
2023/09/04 08:36:08;;;;;;;0.00;0.00;;;21.80;99.90;;;;;;5063599;28;20035;-79
2023/09/04 08:38:34;;;;;;;0.35;0.35;;;21.90;99.90;;;;;;5083546;28;20090;-79
2023/09/04 08:41:04;;;;;;;0.08;0.08;;;22.20;99.90;;;;;;5060674;28;20154;-78
2023/09/04 08:43:31;;;;;;;0.03;0.03;;;22.30;99.90;;;;;;5051338;28;20476;-78
2023/09/04 08:46:02;;;;;;;0.65;0.38;;;21.70;99.90;;;;;;5016543;28;20489;-79
2023/09/04 08:48:34;;;;;;;0.95;0.40;;;21.40;99.90;;;;;;5075362;28;20035;-78
2023/09/04 08:50:59;;;;;;;0.20;0.20;;;21.50;99.90;;;;;;5068826;28;20022;-79
2023/09/04 08:53:26;;;;;;;0.93;0.73;;;21.60;99.90;;;;;;5045343;28;20033;-78
2023/09/04 08:55:54;;;;;;;0.80;0.60;;;21.80;99.90;;;;;;5024989;28;20497;-77
2023/09/04 08:58:21;;;;;;;0.00;0.00;;;21.70;99.90;;;;;;5012655;28;20020;-78
2023/09/04 09:00:47;;;;;;;1.83;1.10;;;22.10;99.90;;;;;;5064367;28;20474;-75
2023/09/04 09:03:14;;;;;;;1.15;0.98;;;21.80;99.90;;;;;;5066814;28;20028;-77
2023/09/04 09:05:42;;;;;;;1.02;1.02;;;21.80;99.90;;;;;;5038645;28;20125;-76
2023/09/04 09:08:09;;;;;;;0.00;0.00;;;21.80;99.90;;;;;;5019463;28;20030;-75
2023/09/04 09:10:35;;;;;;;0.00;0.00;;;22.10;99.90;;;;;;5073670;28;20047;-76
2023/09/04 09:13:01;;;;;;;0.00;0.00;;;22.40;99.90;;;;;;5066509;28;20032;-75
2023/09/04 09:15:31;;;;;;;2.10;1.33;;;22.70;99.90;;;;;;5054461;28;20042;-75
2023/09/04 09:17:57;;;;;;;0.10;0.10;;;23.00;99.90;;;;;;5022102;28;20018;-75
2023/09/04 09:20:34;;;;;;;0.10;0.10;;;23.30;99.90;;;;;;5016815;28;20038;-76
2023/09/04 09:23:00;;;;;;;0.28;0.28;;;24.00;99.90;;;;;;5071348;28;20432;-76
2023/09/04 09:25:27;;;;;;;0.00;0.00;;;24.10;99.90;;;;;;5074088;28;20023;-76
2023/09/04 09:27:59;;;;;;;0.00;0.00;;;24.40;99.90;;;;;;5037675;28;20537;-76
2023/09/04 09:30:28;;;;;;;1.80;1.67;;;24.70;99.90;;;;;;5016904;28;20109;-75
2023/09/04 09:32:55;;;;;;;0.47;0.47;;;24.10;99.90;;;;;;5012788;28;20041;-77
2023/09/04 09:35:21;;;;;;;1.88;0.28;;;24.60;99.90;;;;;;5035113;28;20027;-77
2023/09/04 09:37:46;;;;;;;0.40;0.28;;;24.30;99.90;;;;;;5085132;28;20122;-77
2023/09/04 09:40:14;;;;;;;0.00;0.00;;;23.80;99.90;;;;;;5052556;28;20034;-78
2023/09/04 09:42:41;;;;;;;0.25;0.25;;;24.00;99.90;;;;;;5031632;28;20096;-77
2023/09/04 09:45:07;;;;;;;0.20;0.20;;;24.30;99.90;;;;;;5033445;28;20037;-77
2023/09/04 09:47:33;;;;;;;0.10;0.10;;;24.80;99.90;;;;;;5012098;28;20034;-77
2023/09/04 09:50:00;;;;;;;0.17;0.17;;;24.60;99.90;;;;;;5048323;28;20027;-77
2023/09/04 09:52:26;;;;;;;0.10;0.10;;;24.40;99.90;;;;;;5036609;28;20067;-78
2023/09/04 09:54:52;;;;;;;0.30;0.30;;;24.40;99.90;;;;;;5024327;28;20034;-77
2023/09/04 09:57:18;;;;;;;0.65;0.55;;;24.50;99.90;;;;;;5020178;28;20385;-77
2023/09/04 09:59:48;;;;;;;0.20;0.20;;;24.50;99.90;;;;;;5054963;28;20031;-78
2023/09/04 10:02:27;;;;;;;0.00;0.00;;;24.80;99.90;;;;;;5054959;28;20040;-77
2023/09/04 10:04:53;;;;;;;0.40;0.40;;;25.40;99.90;;;;;;5036540;28;20044;-78
2023/09/04 10:07:27;;;;;;;0.95;0.55;;;25.50;99.90;;;;;;5028209;28;20039;-78
2023/09/04 10:10:03;;;;;;;0.00;0.00;;;25.30;99.90;;;;;;5053085;28;20027;-77
2023/09/04 10:12:41;;;;;;;0.10;0.10;;;25.40;99.90;;;;;;5060594;28;20044;-77
2023/09/04 10:15:08;;;;;;;0.43;0.43;;;25.70;99.90;;;;;;5018199;28;20034;-78
2023/09/04 10:17:51;;;;;;;0.17;0.17;;;25.70;99.90;;;;;;5009616;28;20125;-78
2023/09/04 10:20:18;;;;;;;0.10;0.10;;;25.60;99.40;;;;;;5010235;28;20470;-77
2023/09/04 10:22:50;;;;;;;0.00;0.00;;;25.90;99.60;;;;;;5010219;28;20026;-78
2023/09/04 10:25:27;;;;;;;1.45;1.13;;;26.20;99.40;;;;;;5010313;28;20037;-77
2023/09/04 10:28:15;;;;;;;0.00;0.00;;;26.60;99.40;;;;;;5010021;28;20096;-78
2023/09/04 10:30:44;;;;;;;0.00;0.00;;;26.70;99.70;;;;;;5014885;28;20063;-77
2023/09/04 10:33:13;;;;;;;1.88;1.13;;;26.50;99.90;;;;;;5008997;28;20033;-79
2023/09/04 10:35:41;;;;;;;0.10;0.10;;;26.30;99.90;;;;;;5008939;28;20042;-77
2023/09/04 10:38:07;;;;;;;0.00;0.00;;;26.70;99.90;;;;;;4982228;28;20032;-77
2023/09/04 10:40:35;;;;;;;0.00;0.00;;;26.80;98.90;;;;;;5008013;28;20064;-77
2023/09/04 10:43:03;;;;;;;0.00;0.00;;;26.50;99.90;;;;;;5009801;28;20030;-77
2023/09/04 10:45:30;;;;;;;0.10;0.10;;;26.50;98.60;;;;;;5009848;28;20022;-77
2023/09/04 10:47:56;;;;;;;0.20;0.20;;;26.70;98.00;;;;;;5009840;28;20473;-77
2023/09/04 10:50:31;;;;;;;0.10;0.10;;;26.90;97.90;;;;;;5004218;28;20719;-77
2023/09/04 10:52:59;;;;;;;0.00;0.00;;;27.30;98.90;;;;;;5009783;28;20037;-77
2023/09/04 10:55:25;;;;;;;1.90;0.65;;;27.10;98.50;;;;;;5010037;28;20061;-77
2023/09/04 10:58:05;;;;;;;0.00;0.00;;;27.70;97.90;;;;;;5012269;28;20029;-77
2023/09/04 11:00:33;;;;;;;0.30;0.30;;;28.30;97.10;;;;;;5011936;28;20032;-77
2023/09/04 11:03:20;;;;;;;0.00;0.00;;;28.10;97.40;;;;;;5007389;28;20525;-77
2023/09/04 11:06:05;;;;;;;0.30;0.30;;;28.00;97.60;;;;;;5023113;28;20154;-77
2023/09/04 11:08:32;;;;;;;0.00;0.00;;;27.90;97.10;;;;;;5016380;28;20022;-77
2023/09/04 11:11:03;;;;;;;0.00;0.00;;;28.30;95.80;;;;;;5016011;28;20079;-77
2023/09/04 11:13:29;;;;;;;;;;;28.80;95.40;;;;;;5016466;28;20026;-78
2023/09/04 11:15:56;;;;;;;0.00;0.00;;;28.30;94.70;;;;;;5016311;28;19909;-78
2023/09/04 11:18:28;;;;;;;0.30;0.17;;;28.40;96.40;;;;;;5015867;28;20030;-77
2023/09/04 11:20:55;;;;;;;0.00;0.00;;;29.20;95.30;;;;;;5016038;28;20439;-77
2023/09/04 11:23:24;;;;;;;0.08;0.08;;;29.10;94.70;;;;;;5016096;28;20054;-78
2023/09/04 11:25:52;;;;;;;0.00;0.00;;;29.10;93.90;;;;;;5015957;28;20022;-78
2023/09/04 11:28:26;;;;;;;0.00;0.00;;;28.90;93.80;;;;;;5002661;28;20546;-78
2023/09/04 11:30:57;;;;;;;0.00;0.00;;;29.60;93.30;;;;;;5016436;28;20038;-78
2023/09/04 11:33:31;;;;;;;0.00;0.00;;;29.70;92.90;;;;;;5015724;28;20044;-78
2023/09/04 11:36:15;;;;;;;0.35;0.35;;;30.00;92.40;;;;;;5016255;28;20030;-77
2023/09/04 11:38:42;;;;;;;0.00;0.00;;;29.80;92.40;;;;;;5015800;28;20025;-77
2023/09/04 11:41:16;;;;;;;0.00;0.00;;;29.20;92.80;;;;;;5015974;28;20034;-78
2023/09/04 11:43:42;;;;;;;0.00;0.00;;;28.90;93.00;;;;;;5015866;28;20033;-77
2023/09/04 11:46:09;;;;;;;0.00;0.00;;;29.40;92.00;;;;;;5015861;28;20114;-77
2023/09/04 11:48:35;;;;;;;0.00;0.00;;;30.10;91.90;;;;;;5015609;28;20025;-77
2023/09/04 11:51:04;;;;;;;0.05;0.05;;;30.20;91.00;;;;;;5016110;28;20065;-78
2023/09/04 11:53:30;;;;;;;0.10;0.10;;;30.20;90.20;;;;;;5015785;28;20026;-78
2023/09/04 11:55:57;;;;;;;0.00;0.00;;;30.10;88.30;;;;;;5016010;28;20494;-78
2023/09/04 11:58:23;;;;;;;0.00;0.00;;;30.00;90.70;;;;;;5015664;28;20037;-77
2023/09/04 12:00:49;;;;;;;0.00;0.00;;;30.40;90.80;;;;;;5015314;28;20026;-78
2023/09/04 12:03:15;;;;;;;0.00;0.00;;;31.30;90.00;;;;;;5015650;28;20044;-78
2023/09/04 12:05:42;;;;;;;0.00;0.00;;;31.20;90.20;;;;;;5015669;28;20387;-79
2023/09/04 12:08:09;;;;;;;0.00;0.00;;;32.30;89.20;;;;;;5016139;28;20029;-77
2023/09/04 12:10:37;;;;;;;0.00;0.00;;;32.40;87.60;;;;;;5012038;28;20463;-77
2023/09/04 12:13:03;;;;;;;0.10;0.10;;;32.30;87.20;;;;;;5017209;28;20465;-77
2023/09/04 12:15:33;;;;;;;3.10;2.47;;;32.80;85.60;;;;;;5019404;28;20026;-77
2023/09/04 12:18:01;;;;;;;0.10;0.10;;;33.20;83.90;;;;;;5012031;28;20022;-77
2023/09/04 12:20:34;;;;;;;0.00;0.00;;;33.10;83.20;;;;;;5012192;28;20057;-77
2023/09/04 12:23:00;;;;;;;0.00;0.00;;;33.40;81.40;;;;;;5012092;28;20028;-78
2023/09/04 12:25:33;;;;;;;0.00;0.00;;;33.80;79.50;;;;;;5012227;28;20390;-78
2023/09/04 12:27:58;;;;;;;0.00;0.00;;;33.60;78.50;;;;;;5010990;28;20040;-77
2023/09/04 12:30:24;;;;;;;0.13;0.13;;;34.30;79.50;;;;;;5012164;28;20018;-77
2023/09/04 12:32:50;;;;;;;0.00;0.00;;;34.70;75.60;;;;;;5011934;28;20493;-77
2023/09/04 12:35:19;;;;;;;0.00;0.00;;;35.10;73.60;;;;;;5011758;28;20392;-77
2023/09/04 12:37:45;;;;;;;1.55;0.20;;;35.00;74.00;;;;;;5010878;28;20137;-78
2023/09/04 12:40:11;;;;;;;1.38;1.27;;;34.10;73.10;;;;;;5011819;28;20030;-78
2023/09/04 12:42:38;;;;;;;11.93;4.68;;;34.60;75.50;;;;;;5012077;28;20030;-77
2023/09/04 12:45:06;;;;;;;1.13;0.22;;;35.60;75.20;;;;;;5011632;28;20071;-78
2023/09/04 12:47:32;;;;;;;0.00;0.00;;;34.80;75.40;;;;;;5011791;28;20046;-78
2023/09/04 12:49:58;;;;;;;0.10;0.10;;;36.20;74.40;;;;;;5011924;28;20056;-78